createdAt,value
2023-02-06T00:00:53.446Z,47.29
2023-02-06T00:03:20.660Z,47.65
2023-02-06T00:05:59.436Z,48.22
2023-02-06T00:08:27.954Z,47.48
2023-02-06T00:10:54.978Z,47.66
2023-02-06T00:13:22.197Z,47.63
2023-02-06T00:15:49.222Z,47.36
2023-02-06T00:18:16.249Z,47.67
2023-02-06T00:20:43.183Z,47.15
2023-02-06T00:23:10.335Z,47.51
2023-02-06T00:25:37.572Z,47.33
2023-02-06T00:28:05.120Z,47.26
2023-02-06T00:30:32.138Z,47.48
2023-02-06T00:32:59.336Z,47.03
2023-02-06T00:35:26.288Z,47.03
2023-02-06T00:37:53.389Z,47.12
2023-02-06T00:40:20.352Z,47.20
2023-02-06T00:42:47.414Z,46.98
2023-02-06T00:45:14.332Z,47.30
2023-02-06T00:47:41.362Z,47.27
2023-02-06T00:50:09.910Z,47.38
2023-02-06T00:52:36.851Z,47.30
2023-02-06T00:55:05.410Z,47.30
2023-02-06T00:57:32.352Z,47.10
2023-02-06T00:59:59.334Z,47.13
2023-02-06T01:02:27.239Z,47.07
2023-02-06T01:04:54.220Z,47.38
2023-02-06T01:07:21.192Z,47.46
2023-02-06T01:09:48.308Z,48.16
2023-02-06T01:12:15.195Z,47.44
2023-02-06T01:14:42.155Z,47.57
2023-02-06T01:17:11.805Z,47.70
2023-02-06T01:19:39.655Z,47.83
2023-02-06T01:22:07.588Z,47.76
2023-02-06T01:24:34.692Z,48.17
2023-02-06T01:27:01.786Z,48.24
2023-02-06T01:29:28.722Z,47.76
2023-02-06T01:31:56.171Z,48.01
2023-02-06T01:34:23.165Z,48.23
2023-02-06T01:36:50.126Z,47.88
2023-02-06T01:39:17.245Z,48.09
2023-02-06T01:41:44.312Z,48.32
2023-02-06T01:44:19.382Z,48.07
2023-02-06T01:46:52.160Z,48.18
2023-02-06T01:49:39.782Z,48.23
2023-02-06T01:52:25.587Z,48.34
2023-02-06T01:55:00.920Z,48.39
2023-02-06T01:57:29.074Z,48.32
2023-02-06T01:59:59.388Z,48.22
2023-02-06T02:02:28.989Z,48.75
2023-02-06T02:04:58.113Z,48.14
2023-02-06T02:07:33.336Z,48.18
2023-02-06T02:10:00.496Z,48.52
2023-02-06T02:12:28.124Z,49.08
2023-02-06T02:14:56.727Z,48.89
2023-02-06T02:18:06.336Z,48.84
2023-02-06T02:21:07.429Z,49.14
2023-02-06T02:23:43.948Z,48.90
2023-02-06T02:26:31.438Z,49.42
2023-02-06T02:29:16.510Z,49.20
2023-02-06T02:31:55.469Z,49.64
2023-02-06T02:34:31.553Z,49.90
2023-02-06T02:37:00.262Z,49.37
2023-02-06T02:39:42.221Z,49.82
2023-02-06T02:42:23.338Z,49.27
2023-02-06T02:45:36.850Z,49.85
2023-02-06T02:48:04.049Z,49.85
2023-02-06T02:50:32.837Z,49.94
2023-02-06T02:53:02.308Z,49.76
2023-02-06T02:55:29.492Z,49.54
2023-02-06T02:58:05.416Z,49.84
2023-02-06T03:00:37.465Z,49.99
2023-02-06T03:03:06.605Z,49.91
2023-02-06T03:05:38.229Z,50.03
2023-02-06T03:08:11.414Z,49.75
2023-02-06T03:10:44.074Z,49.60
2023-02-06T03:13:26.668Z,49.79
2023-02-06T03:16:05.550Z,49.42
2023-02-06T03:18:46.533Z,49.56
2023-02-06T03:21:19.865Z,49.34
2023-02-06T03:23:50.454Z,49.28
2023-02-06T03:26:21.156Z,49.21
2023-02-06T03:28:52.981Z,49.59
2023-02-06T03:31:33.384Z,49.53
2023-02-06T03:34:11.090Z,49.80
2023-02-06T03:36:38.174Z,50.04
2023-02-06T03:39:05.097Z,50.00
2023-02-06T03:41:36.191Z,49.70
2023-02-06T03:44:06.815Z,50.09
2023-02-06T03:46:37.160Z,50.45
2023-02-06T03:49:07.778Z,49.85
2023-02-06T03:51:45.177Z,50.54
2023-02-06T03:54:16.986Z,50.20
2023-02-06T03:56:48.855Z,50.70
2023-02-06T03:59:15.928Z,50.74
2023-02-06T04:01:45.918Z,50.80
2023-02-06T04:04:16.641Z,50.84
2023-02-06T04:06:43.749Z,50.96
2023-02-06T04:09:10.869Z,50.86
2023-02-06T04:11:37.899Z,50.95
2023-02-06T04:14:04.956Z,50.88
2023-02-06T04:16:31.934Z,50.72
2023-02-06T04:18:59.045Z,50.74
2023-02-06T04:21:26.065Z,50.74
2023-02-06T04:23:53.053Z,50.54
2023-02-06T04:26:20.023Z,50.84
2023-02-06T04:28:46.970Z,50.93
2023-02-06T04:31:14.028Z,51.18
2023-02-06T04:33:41.168Z,50.88
2023-02-06T04:36:08.358Z,50.80
2023-02-06T04:38:35.396Z,50.86
2023-02-06T04:41:06.635Z,50.73
2023-02-06T04:43:34.414Z,50.78
2023-02-06T04:46:01.338Z,50.92
2023-02-06T04:48:28.509Z,50.95
2023-02-06T04:50:55.434Z,50.88
2023-02-06T04:53:22.410Z,51.01
2023-02-06T04:55:49.425Z,51.43
2023-02-06T04:58:16.410Z,51.21
2023-02-06T05:00:43.382Z,51.43
2023-02-06T05:03:10.341Z,51.29
2023-02-06T05:05:37.451Z,51.48
2023-02-06T05:08:04.391Z,51.49
2023-02-06T05:10:31.405Z,51.78
2023-02-06T05:12:58.344Z,51.53
2023-02-06T05:15:25.297Z,52.07
2023-02-06T05:17:52.355Z,52.11
2023-02-06T05:20:20.082Z,51.65
2023-02-06T05:22:47.075Z,52.15
2023-02-06T05:25:14.074Z,52.06
2023-02-06T05:27:41.110Z,52.28
2023-02-06T05:30:08.591Z,52.49
2023-02-06T05:32:35.588Z,52.60
2023-02-06T05:35:02.584Z,52.33
2023-02-06T05:37:29.600Z,52.53
2023-02-06T05:39:58.517Z,52.42
2023-02-06T05:42:26.602Z,52.95
2023-02-06T05:44:53.441Z,52.83
2023-02-06T05:47:20.456Z,52.67
2023-02-06T05:49:48.441Z,52.70
2023-02-06T05:52:16.434Z,52.60
2023-02-06T05:54:43.233Z,53.09
2023-02-06T05:57:10.796Z,52.98
2023-02-06T05:59:37.947Z,53.04
2023-02-06T06:02:05.166Z,53.29
2023-02-06T06:04:32.203Z,53.21
2023-02-06T06:06:59.556Z,53.96
2023-02-06T06:09:26.577Z,53.95
2023-02-06T06:11:53.708Z,53.90
2023-02-06T06:14:20.602Z,53.93
2023-02-06T06:16:47.537Z,54.05
2023-02-06T06:19:14.541Z,53.65
2023-02-06T06:21:41.447Z,53.94
2023-02-06T06:24:08.359Z,54.06
2023-02-06T06:26:35.560Z,53.70
2023-02-06T06:29:03.990Z,53.79
2023-02-06T06:31:31.054Z,53.66
2023-02-06T06:33:57.992Z,54.22
2023-02-06T06:36:24.968Z,53.95
2023-02-06T06:38:51.887Z,53.95
2023-02-06T06:41:19.008Z,54.07
2023-02-06T06:43:45.907Z,53.84
2023-02-06T06:46:12.818Z,53.72
2023-02-06T06:48:40.566Z,54.01
2023-02-06T06:51:07.750Z,53.56
2023-02-06T06:53:34.808Z,53.68
2023-02-06T06:56:10.574Z,53.36
2023-02-06T06:58:37.613Z,53.59
2023-02-06T07:01:05.244Z,53.87
2023-02-06T07:03:32.297Z,53.83
2023-02-06T07:05:59.348Z,53.83
2023-02-06T07:08:27.065Z,53.34
2023-02-06T07:10:54.076Z,53.59
2023-02-06T07:13:21.130Z,53.31
2023-02-06T07:15:48.062Z,53.53
2023-02-06T07:18:15.013Z,53.41
2023-02-06T07:20:42.018Z,53.07
2023-02-06T07:23:08.958Z,53.41
2023-02-06T07:25:36.129Z,53.31
2023-02-06T07:28:03.754Z,53.58
2023-02-06T07:30:30.682Z,53.60
2023-02-06T07:32:57.738Z,53.41
2023-02-06T07:35:24.728Z,53.53
2023-02-06T07:37:54.561Z,53.46
2023-02-06T07:40:21.649Z,52.71
2023-02-06T07:42:48.636Z,53.17
2023-02-06T07:45:22.057Z,53.04
2023-02-06T07:47:49.012Z,52.90
2023-02-06T07:50:16.107Z,52.22
2023-02-06T07:52:43.017Z,51.75
2023-02-06T07:55:10.458Z,52.47
2023-02-06T07:57:37.499Z,52.50
2023-02-06T08:00:05.517Z,52.59
2023-02-06T08:02:39.100Z,51.71
2023-02-06T08:05:06.462Z,51.85
2023-02-06T08:07:33.399Z,52.36
2023-02-06T08:10:00.281Z,52.19
2023-02-06T08:12:30.091Z,52.56
2023-02-06T08:14:57.058Z,51.96
2023-02-06T08:17:24.237Z,51.93
2023-02-06T08:19:51.187Z,52.03
2023-02-06T08:22:18.148Z,52.07
2023-02-06T08:24:45.487Z,52.02
2023-02-06T08:27:12.442Z,52.04
2023-02-06T08:29:42.816Z,52.19
2023-02-06T08:32:10.725Z,51.85
2023-02-06T08:34:39.667Z,52.22
2023-02-06T08:37:06.695Z,51.93
2023-02-06T08:39:33.710Z,52.04
2023-02-06T08:42:00.637Z,51.95
2023-02-06T08:44:28.050Z,51.66
2023-02-06T08:47:08.902Z,51.83
2023-02-06T08:49:37.002Z,51.97
2023-02-06T08:52:03.927Z,51.62
2023-02-06T08:54:32.234Z,51.13
2023-02-06T08:57:01.255Z,51.64
2023-02-06T08:59:31.341Z,51.57
2023-02-06T09:01:58.302Z,51.34
2023-02-06T09:04:25.371Z,52.02
2023-02-06T09:06:52.405Z,51.69
2023-02-06T09:09:19.897Z,51.40
2023-02-06T09:11:46.972Z,51.10
2023-02-06T09:14:16.511Z,51.02
2023-02-06T09:16:43.790Z,50.58
2023-02-06T09:19:11.620Z,50.04
2023-02-06T09:21:38.876Z,49.80
2023-02-06T09:24:08.578Z,50.16
2023-02-06T09:26:44.816Z,49.97
2023-02-06T09:29:17.357Z,49.95
2023-02-06T09:31:44.641Z,49.54
2023-02-06T09:34:12.782Z,48.43
2023-02-06T09:36:39.959Z,49.01
2023-02-06T09:39:08.979Z,49.09
2023-02-06T09:41:46.820Z,48.52
2023-02-06T09:44:28.318Z,48.12
2023-02-06T09:47:02.678Z,48.36
2023-02-06T09:49:39.361Z,48.06
2023-02-06T09:52:15.587Z,48.55
2023-02-06T09:54:51.450Z,48.57
2023-02-06T09:57:26.052Z,48.86
2023-02-06T10:00:01.584Z,48.46
2023-02-06T10:02:28.552Z,47.63
2023-02-06T10:05:13.359Z,47.30
2023-02-06T10:08:17.011Z,46.95
2023-02-06T10:11:03.731Z,46.35
2023-02-06T10:13:33.525Z,46.43
2023-02-06T10:16:20.239Z,46.30
2023-02-06T10:18:54.182Z,45.92
2023-02-06T10:21:42.758Z,45.58
2023-02-06T10:24:28.603Z,44.77
2023-02-06T10:26:58.491Z,44.52
2023-02-06T10:29:31.942Z,44.89
2023-02-06T10:32:04.465Z,44.67
2023-02-06T10:34:43.604Z,44.69
2023-02-06T10:37:22.763Z,44.55
2023-02-06T10:40:13.426Z,43.94
2023-02-06T10:43:03.375Z,43.93
2023-02-06T10:46:26.147Z,43.75
2023-02-06T10:49:14.086Z,43.61
2023-02-06T10:51:47.641Z,44.17
2023-02-06T10:54:34.975Z,44.07
2023-02-06T10:57:03.250Z,43.86
2023-02-06T10:59:38.044Z,43.90
2023-02-06T11:02:08.081Z,43.47
2023-02-06T11:04:39.458Z,43.19
2023-02-06T11:07:14.761Z,42.35
2023-02-06T11:09:41.892Z,42.88
2023-02-06T11:12:35.367Z,41.79
2023-02-06T11:15:09.381Z,42.06
2023-02-06T11:17:36.643Z,41.35
2023-02-06T11:20:26.778Z,41.85
2023-02-06T11:22:54.268Z,41.50
2023-02-06T11:25:34.089Z,41.88
2023-02-06T11:28:01.724Z,42.00
2023-02-06T11:30:37.841Z,42.21
2023-02-06T11:33:46.981Z,42.32
2023-02-06T11:36:27.514Z,42.06
2023-02-06T11:39:25.760Z,42.27
2023-02-06T11:42:13.732Z,42.51
2023-02-06T11:44:42.078Z,42.24
2023-02-06T11:47:37.178Z,42.41
2023-02-06T11:50:13.514Z,41.85
2023-02-06T11:52:47.045Z,40.98
2023-02-06T11:55:24.722Z,40.52
2023-02-06T11:58:14.405Z,39.26
2023-02-06T12:13:34.243Z,39.34
2023-02-06T12:16:04.152Z,39.83
2023-02-06T12:18:44.065Z,39.72
2023-02-06T12:21:19.962Z,39.40
2023-02-06T12:23:53.168Z,38.77
2023-02-06T12:26:24.090Z,38.85
2023-02-06T12:29:10.326Z,38.80
2023-02-06T12:31:54.101Z,38.74
2023-02-06T12:34:25.945Z,38.88
2023-02-06T12:37:00.742Z,39.77
2023-02-06T12:39:32.603Z,39.92
2023-02-06T12:42:07.113Z,39.38
2023-02-06T12:45:05.165Z,39.74
2023-02-06T12:48:12.351Z,39.57
2023-02-06T12:50:46.883Z,38.96
2023-02-06T12:53:26.614Z,38.64
2023-02-06T12:56:02.851Z,38.56
2023-02-06T12:58:52.520Z,39.04
2023-02-06T13:01:30.011Z,38.71
2023-02-06T13:04:06.224Z,38.47
2023-02-06T13:06:56.967Z,38.25
2023-02-06T13:09:58.205Z,37.81
2023-02-06T13:12:28.446Z,37.90
2023-02-06T13:15:02.166Z,38.17
2023-02-06T13:17:42.914Z,38.00
2023-02-06T13:20:15.088Z,38.24
2023-02-06T13:22:51.201Z,38.94
2023-02-06T13:25:30.570Z,38.72
2023-02-06T13:27:58.742Z,38.30
2023-02-06T13:30:31.805Z,38.92
2023-02-06T13:33:08.809Z,38.67
2023-02-06T13:35:36.180Z,38.74
2023-02-06T13:38:24.860Z,39.30
2023-02-06T13:41:16.662Z,38.90
2023-02-06T13:43:51.238Z,38.71
2023-02-06T13:46:22.546Z,39.58
2023-02-06T13:49:09.331Z,38.87
2023-02-06T13:51:58.666Z,38.93
2023-02-06T13:54:43.740Z,40.01
2023-02-06T13:57:39.523Z,39.72
2023-02-06T14:00:23.260Z,40.15
2023-02-06T14:02:54.600Z,40.10
2023-02-06T14:05:26.875Z,40.14
2023-02-06T14:08:15.880Z,40.52
2023-02-06T14:11:04.585Z,40.48
2023-02-06T14:13:31.617Z,41.27
2023-02-06T14:16:29.575Z,41.50
2023-02-06T14:19:04.669Z,42.01
2023-02-06T14:21:51.733Z,42.17
2023-02-06T14:24:36.703Z,42.96
2023-02-06T14:27:42.522Z,42.73
2023-02-06T14:30:24.452Z,42.25
2023-02-06T14:33:10.192Z,42.94
2023-02-06T14:35:55.655Z,42.47
2023-02-06T14:38:54.472Z,42.77
2023-02-06T14:41:21.921Z,43.34
2023-02-06T14:43:51.324Z,43.71
2023-02-06T14:46:20.131Z,43.57
2023-02-06T14:48:53.852Z,43.61
2023-02-06T14:51:26.703Z,43.31
2023-02-06T14:54:01.815Z,43.89
2023-02-06T14:56:37.636Z,44.31
2023-02-06T14:59:13.820Z,43.44
2023-02-06T15:01:43.277Z,43.39
2023-02-06T15:04:13.906Z,44.17
2023-02-06T15:06:43.849Z,43.49
2023-02-06T15:09:30.307Z,43.86
2023-02-06T15:12:00.569Z,43.82
2023-02-06T15:14:33.527Z,43.83
2023-02-06T15:17:02.958Z,43.75
2023-02-06T15:19:35.754Z,44.00
2023-02-06T15:22:07.120Z,43.74
2023-02-06T15:24:40.256Z,43.95
2023-02-06T15:27:30.723Z,44.11
2023-02-06T15:29:59.087Z,43.94
2023-02-06T15:32:38.701Z,44.32
2023-02-06T15:35:20.992Z,44.69
2023-02-06T15:37:48.650Z,44.32
2023-02-06T15:40:31.193Z,44.83
2023-02-06T15:42:59.231Z,44.97
2023-02-06T15:45:34.545Z,44.60
2023-02-06T15:48:13.678Z,45.42
2023-02-06T15:50:40.931Z,44.81
2023-02-06T15:53:18.748Z,45.06
2023-02-06T15:55:56.675Z,45.15
2023-02-06T15:58:25.091Z,45.46
2023-02-06T16:00:57.312Z,45.37
2023-02-06T16:03:27.329Z,45.59
2023-02-06T16:05:56.652Z,45.84
2023-02-06T16:08:30.283Z,45.85
2023-02-06T16:11:05.359Z,45.57
2023-02-06T16:13:33.519Z,45.79
2023-02-06T16:16:09.294Z,45.77
2023-02-06T16:18:38.632Z,45.82
2023-02-06T16:21:17.848Z,46.21
2023-02-06T16:23:49.294Z,46.31
2023-02-06T16:26:25.379Z,46.54
2023-02-06T16:29:00.509Z,46.53
2023-02-06T16:31:30.004Z,46.86
2023-02-06T16:34:03.429Z,47.27
2023-02-06T16:36:32.712Z,47.53
2023-02-06T16:39:04.517Z,47.38
2023-02-06T16:41:35.024Z,47.76
2023-02-06T16:44:03.410Z,47.49
2023-02-06T16:46:30.838Z,47.85
2023-02-06T16:48:59.214Z,47.82
2023-02-06T16:51:29.811Z,47.86
2023-02-06T16:53:58.197Z,48.16
2023-02-06T16:56:25.334Z,48.23
2023-02-06T16:58:52.474Z,48.70
2023-02-06T17:01:26.707Z,49.20
2023-02-06T17:03:54.359Z,48.92
2023-02-06T17:06:26.655Z,49.31
2023-02-06T17:08:58.002Z,49.38
2023-02-06T17:11:25.243Z,49.34
2023-02-06T17:13:52.157Z,49.40
2023-02-06T17:16:21.692Z,49.81
2023-02-06T17:18:49.507Z,50.12
2023-02-06T17:21:19.724Z,50.17
2023-02-06T17:23:49.210Z,50.09
2023-02-06T17:26:21.812Z,50.12
2023-02-06T17:28:49.675Z,50.05
2023-02-06T17:31:17.547Z,50.08
2023-02-06T17:33:44.663Z,50.15
2023-02-06T17:36:29.641Z,50.09
2023-02-06T17:38:59.146Z,50.17
2023-02-06T17:41:27.617Z,50.15
2023-02-06T17:43:54.960Z,50.46
2023-02-06T17:46:22.755Z,50.41
2023-02-06T17:48:49.753Z,50.37
2023-02-06T17:51:16.827Z,50.31
2023-02-06T17:53:43.884Z,50.46
2023-02-06T17:56:13.237Z,50.91
2023-02-06T17:58:41.531Z,50.87
2023-02-06T18:01:20.034Z,50.70
2023-02-06T18:03:48.127Z,50.75
2023-02-06T18:06:15.593Z,50.74
2023-02-06T18:08:43.462Z,50.67
2023-02-06T18:11:16.580Z,50.88
2023-02-06T18:13:43.998Z,50.74
2023-02-06T18:16:21.029Z,50.80
2023-02-06T18:18:48.749Z,50.95
2023-02-06T18:21:16.698Z,50.98
2023-02-06T18:23:43.737Z,50.82
2023-02-06T18:26:10.969Z,51.48
2023-02-06T18:28:39.779Z,51.31
2023-02-06T18:31:21.920Z,51.50
2023-02-06T18:33:49.086Z,51.32
2023-02-06T18:36:16.055Z,51.53
2023-02-06T18:38:43.044Z,51.37
2023-02-06T18:41:29.964Z,51.41
2023-02-06T18:44:00.479Z,51.65
2023-02-06T18:46:27.557Z,51.55
2023-02-06T18:48:55.212Z,51.71
2023-02-06T18:51:22.272Z,51.41
2023-02-06T18:53:49.744Z,51.76
2023-02-06T18:56:16.905Z,51.50
2023-02-06T18:58:43.913Z,51.78
2023-02-06T19:01:17.511Z,51.98
2023-02-06T19:03:45.363Z,51.91
2023-02-06T19:06:18.515Z,51.85
2023-02-06T19:08:46.791Z,51.73
2023-02-06T19:11:14.168Z,51.76
2023-02-06T19:13:41.529Z,51.80
2023-02-06T19:16:12.727Z,51.58
2023-02-06T19:18:42.245Z,51.71
2023-02-06T19:21:12.147Z,51.81
2023-02-06T19:23:40.091Z,51.68
2023-02-06T19:26:09.149Z,51.58
2023-02-06T19:28:38.460Z,51.71
2023-02-06T19:31:07.050Z,51.38
2023-02-06T19:33:36.305Z,51.52
2023-02-06T19:36:23.044Z,51.58
2023-02-06T19:38:53.709Z,51.84
2023-02-06T19:41:24.022Z,51.64
2023-02-06T19:43:52.773Z,51.53
2023-02-06T19:46:23.197Z,51.42
2023-02-06T19:48:51.244Z,52.14
2023-02-06T19:51:25.162Z,52.37
2023-02-06T19:53:54.055Z,52.58
2023-02-06T19:56:32.934Z,52.48
2023-02-06T19:59:01.872Z,53.02
2023-02-06T20:01:30.719Z,52.84
2023-02-06T20:03:59.591Z,53.11
2023-02-06T20:06:29.642Z,53.10
2023-02-06T20:08:57.411Z,53.08
2023-02-06T20:11:24.466Z,53.14
2023-02-06T20:13:55.740Z,53.42
2023-02-06T20:16:25.860Z,53.50
2023-02-06T20:18:53.926Z,53.69
2023-02-06T20:21:29.649Z,53.71
2023-02-06T20:24:01.841Z,53.58
2023-02-06T20:26:33.786Z,53.75
2023-02-06T20:29:01.190Z,53.49
2023-02-06T20:31:28.237Z,53.51
2023-02-06T20:33:55.846Z,53.53
2023-02-06T20:36:25.186Z,53.26
2023-02-06T20:38:58.848Z,53.57
2023-02-06T20:41:29.705Z,53.27
2023-02-06T20:43:57.968Z,53.54
2023-02-06T20:46:26.267Z,53.35
2023-02-06T20:48:56.929Z,53.32
2023-02-06T20:51:24.615Z,53.23
2023-02-06T20:53:52.104Z,53.19
2023-02-06T20:56:20.288Z,53.32
2023-02-06T20:58:47.633Z,53.11
2023-02-06T21:01:20.453Z,53.27
2023-02-06T21:03:47.703Z,53.19
2023-02-06T21:06:15.733Z,52.97
2023-02-06T21:08:43.128Z,53.02
2023-02-06T21:11:10.204Z,53.07
2023-02-06T21:13:40.002Z,53.23
2023-02-06T21:16:07.403Z,52.75
2023-02-06T21:18:34.562Z,52.70
2023-02-06T21:21:13.038Z,52.96
2023-02-06T21:23:41.424Z,53.28
2023-02-06T21:26:09.825Z,53.02
2023-02-06T21:28:37.936Z,52.96
2023-02-06T21:31:06.543Z,53.21
2023-02-06T21:33:34.635Z,52.78
2023-02-06T21:36:02.303Z,53.25
2023-02-06T21:38:29.768Z,53.51
2023-02-06T21:40:58.597Z,53.47
2023-02-06T21:43:25.508Z,53.44
2023-02-06T21:45:52.437Z,53.63
2023-02-06T21:48:19.410Z,53.68
2023-02-06T21:50:46.328Z,53.85
2023-02-06T21:53:13.479Z,54.04
2023-02-06T21:55:44.868Z,53.98
2023-02-06T21:58:16.837Z,54.20
2023-02-06T22:00:45.484Z,54.07
2023-02-06T22:03:13.289Z,54.02
2023-02-06T22:05:40.695Z,54.13
2023-02-06T22:08:07.623Z,53.84
2023-02-06T22:10:38.237Z,54.55
2023-02-06T22:13:06.122Z,54.01
2023-02-06T22:15:34.062Z,53.95
2023-02-06T22:18:01.130Z,54.02
2023-02-06T22:20:28.433Z,53.78
2023-02-06T22:22:55.878Z,54.32
2023-02-06T22:25:23.008Z,53.90
2023-02-06T22:27:50.104Z,53.95
2023-02-06T22:30:17.215Z,53.93
2023-02-06T22:32:44.215Z,54.04
2023-02-06T22:35:11.236Z,54.59
2023-02-06T22:37:38.344Z,54.37
2023-02-06T22:40:08.168Z,54.55
2023-02-06T22:42:36.393Z,54.45
2023-02-06T22:45:03.503Z,54.63
2023-02-06T22:47:30.552Z,54.48
2023-02-06T22:49:57.483Z,54.23
2023-02-06T22:52:45.107Z,54.45
2023-02-06T22:55:12.822Z,54.60
2023-02-06T22:57:39.772Z,54.27
2023-02-06T23:00:09.604Z,54.40
2023-02-06T23:02:38.462Z,54.48
2023-02-06T23:05:05.825Z,54.29
2023-02-06T23:07:32.795Z,54.45
2023-02-06T23:09:59.806Z,54.12
2023-02-06T23:12:26.826Z,54.44
2023-02-06T23:14:54.026Z,54.23
2023-02-06T23:17:20.954Z,54.39
2023-02-06T23:19:48.003Z,54.47
2023-02-06T23:22:14.923Z,54.44
2023-02-06T23:24:41.863Z,54.63
2023-02-06T23:27:09.090Z,54.58
2023-02-06T23:29:35.983Z,54.34
2023-02-06T23:32:02.928Z,54.42
2023-02-06T23:34:29.878Z,54.73
2023-02-06T23:36:56.800Z,54.78
2023-02-06T23:39:23.816Z,54.75
2023-02-06T23:41:50.809Z,54.98
2023-02-06T23:44:18.074Z,54.81
2023-02-06T23:46:45.027Z,55.03
2023-02-06T23:49:12.174Z,54.61
2023-02-06T23:51:39.266Z,54.61
2023-02-06T23:54:08.186Z,54.78
2023-02-06T23:56:36.057Z,54.91
2023-02-06T23:59:04.267Z,55.33
